sensor_id;sensor_type;location;lat;lon;timestamp;P1;durP1;ratioP1;P2;durP2;ratioP2
5277;SDS011;2662;51.194;6.614;2024-03-17T00:01:39;2.00;;;1.83;;
5277;SDS011;2662;51.194;6.614;2024-03-17T00:04:06;5.23;;;3.37;;
5277;SDS011;2662;51.194;6.614;2024-03-17T00:06:35;4.07;;;2.23;;
5277;SDS011;2662;51.194;6.614;2024-03-17T00:09:01;3.03;;;2.30;;
5277;SDS011;2662;51.194;6.614;2024-03-17T00:11:31;2.90;;;1.70;;
5277;SDS011;2662;51.194;6.614;2024-03-17T00:13:57;6.20;;;2.57;;
5277;SDS011;2662;51.194;6.614;2024-03-17T00:16:25;3.03;;;2.00;;
5277;SDS011;2662;51.194;6.614;2024-03-17T00:18:52;5.67;;;2.10;;
5277;SDS011;2662;51.194;6.614;2024-03-17T00:21:20;2.87;;;1.93;;
5277;SDS011;2662;51.194;6.614;2024-03-17T00:23:48;7.83;;;1.73;;
5277;SDS011;2662;51.194;6.614;2024-03-17T00:26:15;4.30;;;2.53;;
5277;SDS011;2662;51.194;6.614;2024-03-17T00:28:41;3.17;;;2.23;;
5277;SDS011;2662;51.194;6.614;2024-03-17T00:31:11;4.50;;;2.20;;
5277;SDS011;2662;51.194;6.614;2024-03-17T00:33:37;2.57;;;2.03;;
5277;SDS011;2662;51.194;6.614;2024-03-17T00:36:07;2.70;;;2.13;;
5277;SDS011;2662;51.194;6.614;2024-03-17T00:38:33;2.23;;;1.77;;
5277;SDS011;2662;51.194;6.614;2024-03-17T00:41:03;1.80;;;1.70;;
5277;SDS011;2662;51.194;6.614;2024-03-17T00:43:29;3.10;;;2.10;;
5277;SDS011;2662;51.194;6.614;2024-03-17T00:45:56;15.83;;;2.20;;
5277;SDS011;2662;51.194;6.614;2024-03-17T00:48:23;2.33;;;1.90;;
5277;SDS011;2662;51.194;6.614;2024-03-17T00:50:54;2.33;;;2.13;;
5277;SDS011;2662;51.194;6.614;2024-03-17T00:53:21;2.40;;;1.83;;
5277;SDS011;2662;51.194;6.614;2024-03-17T00:55:50;1.90;;;1.70;;
5277;SDS011;2662;51.194;6.614;2024-03-17T00:58:18;4.03;;;2.10;;
5277;SDS011;2662;51.194;6.614;2024-03-17T01:00:46;2.37;;;1.80;;
5277;SDS011;2662;51.194;6.614;2024-03-17T01:03:13;4.30;;;2.00;;
5277;SDS011;2662;51.194;6.614;2024-03-17T01:05:40;3.37;;;2.07;;
5277;SDS011;2662;51.194;6.614;2024-03-17T01:08:09;3.50;;;2.13;;
5277;SDS011;2662;51.194;6.614;2024-03-17T01:10:37;7.43;;;2.80;;
5277;SDS011;2662;51.194;6.614;2024-03-17T01:13:03;2.33;;;2.13;;
5277;SDS011;2662;51.194;6.614;2024-03-17T01:15:34;3.17;;;2.50;;
5277;SDS011;2662;51.194;6.614;2024-03-17T01:18:00;4.30;;;2.63;;
5277;SDS011;2662;51.194;6.614;2024-03-17T01:20:29;2.70;;;2.37;;
5277;SDS011;2662;51.194;6.614;2024-03-17T01:22:55;2.40;;;2.30;;
5277;SDS011;2662;51.194;6.614;2024-03-17T01:25:22;2.90;;;2.60;;
5277;SDS011;2662;51.194;6.614;2024-03-17T01:27:50;3.73;;;2.63;;
5277;SDS011;2662;51.194;6.614;2024-03-17T01:30:18;5.90;;;2.40;;
5277;SDS011;2662;51.194;6.614;2024-03-17T01:32:45;4.57;;;2.40;;
5277;SDS011;2662;51.194;6.614;2024-03-17T01:35:14;3.00;;;2.40;;
5277;SDS011;2662;51.194;6.614;2024-03-17T01:37:40;3.20;;;2.47;;
5277;SDS011;2662;51.194;6.614;2024-03-17T01:40:07;4.47;;;2.87;;
5277;SDS011;2662;51.194;6.614;2024-03-17T01:42:35;4.53;;;2.20;;
5277;SDS011;2662;51.194;6.614;2024-03-17T01:45:03;4.57;;;2.50;;
5277;SDS011;2662;51.194;6.614;2024-03-17T01:47:50;4.37;;;3.23;;
5277;SDS011;2662;51.194;6.614;2024-03-17T01:50:17;3.97;;;3.00;;
5277;SDS011;2662;51.194;6.614;2024-03-17T01:52:49;4.83;;;2.63;;
5277;SDS011;2662;51.194;6.614;2024-03-17T01:55:18;4.50;;;2.73;;
5277;SDS011;2662;51.194;6.614;2024-03-17T01:57:44;3.00;;;2.37;;
5277;SDS011;2662;51.194;6.614;2024-03-17T02:00:11;3.20;;;2.43;;
5277;SDS011;2662;51.194;6.614;2024-03-17T02:02:39;8.23;;;2.97;;
5277;SDS011;2662;51.194;6.614;2024-03-17T02:05:10;5.17;;;2.93;;
5277;SDS011;2662;51.194;6.614;2024-03-17T02:07:36;3.17;;;2.37;;
5277;SDS011;2662;51.194;6.614;2024-03-17T02:10:03;2.73;;;2.50;;
5277;SDS011;2662;51.194;6.614;2024-03-17T02:12:30;3.90;;;2.87;;
5277;SDS011;2662;51.194;6.614;2024-03-17T02:14:58;8.60;;;3.20;;
5277;SDS011;2662;51.194;6.614;2024-03-17T02:17:24;3.13;;;2.70;;
5277;SDS011;2662;51.194;6.614;2024-03-17T02:19:52;3.07;;;2.40;;
5277;SDS011;2662;51.194;6.614;2024-03-17T02:22:20;4.40;;;3.30;;
5277;SDS011;2662;51.194;6.614;2024-03-17T02:24:48;5.57;;;3.40;;
5277;SDS011;2662;51.194;6.614;2024-03-17T02:27:14;4.93;;;2.93;;
5277;SDS011;2662;51.194;6.614;2024-03-17T02:29:41;3.80;;;3.00;;
5277;SDS011;2662;51.194;6.614;2024-03-17T02:32:10;4.80;;;3.00;;
5277;SDS011;2662;51.194;6.614;2024-03-17T02:34:37;3.93;;;2.93;;
5277;SDS011;2662;51.194;6.614;2024-03-17T02:37:04;4.70;;;2.80;;
5277;SDS011;2662;51.194;6.614;2024-03-17T02:39:34;5.10;;;3.40;;
5277;SDS011;2662;51.194;6.614;2024-03-17T02:42:01;4.67;;;2.70;;
5277;SDS011;2662;51.194;6.614;2024-03-17T02:44:30;2.87;;;2.57;;
5277;SDS011;2662;51.194;6.614;2024-03-17T02:46:57;4.50;;;3.27;;
5277;SDS011;2662;51.194;6.614;2024-03-17T02:49:25;3.83;;;3.17;;
5277;SDS011;2662;51.194;6.614;2024-03-17T02:51:53;3.87;;;2.80;;
5277;SDS011;2662;51.194;6.614;2024-03-17T02:54:20;3.63;;;2.90;;
5277;SDS011;2662;51.194;6.614;2024-03-17T02:56:48;4.10;;;2.93;;
5277;SDS011;2662;51.194;6.614;2024-03-17T02:59:16;6.70;;;3.00;;
5277;SDS011;2662;51.194;6.614;2024-03-17T03:01:43;3.97;;;2.83;;
5277;SDS011;2662;51.194;6.614;2024-03-17T03:04:10;5.20;;;3.23;;
5277;SDS011;2662;51.194;6.614;2024-03-17T03:06:37;6.80;;;3.00;;
5277;SDS011;2662;51.194;6.614;2024-03-17T03:09:04;5.87;;;3.07;;
5277;SDS011;2662;51.194;6.614;2024-03-17T03:11:37;6.37;;;3.53;;
5277;SDS011;2662;51.194;6.614;2024-03-17T03:14:06;4.10;;;3.47;;
5277;SDS011;2662;51.194;6.614;2024-03-17T03:16:33;4.03;;;3.30;;
5277;SDS011;2662;51.194;6.614;2024-03-17T03:19:00;6.27;;;3.73;;
5277;SDS011;2662;51.194;6.614;2024-03-17T03:21:27;4.30;;;3.20;;
5277;SDS011;2662;51.194;6.614;2024-03-17T03:23:54;6.07;;;3.90;;
5277;SDS011;2662;51.194;6.614;2024-03-17T03:26:21;4.10;;;3.27;;
5277;SDS011;2662;51.194;6.614;2024-03-17T03:28:49;4.27;;;3.27;;
5277;SDS011;2662;51.194;6.614;2024-03-17T03:31:20;4.20;;;3.30;;
5277;SDS011;2662;51.194;6.614;2024-03-17T03:33:48;4.83;;;3.10;;
5277;SDS011;2662;51.194;6.614;2024-03-17T03:36:15;5.00;;;3.83;;
5277;SDS011;2662;51.194;6.614;2024-03-17T03:38:43;6.13;;;4.23;;
5277;SDS011;2662;51.194;6.614;2024-03-17T03:41:11;4.77;;;3.43;;
5277;SDS011;2662;51.194;6.614;2024-03-17T03:43:40;5.30;;;3.50;;
5277;SDS011;2662;51.194;6.614;2024-03-17T03:46:08;5.87;;;3.53;;
5277;SDS011;2662;51.194;6.614;2024-03-17T03:48:37;6.53;;;2.97;;
5277;SDS011;2662;51.194;6.614;2024-03-17T03:51:11;7.87;;;3.87;;
5277;SDS011;2662;51.194;6.614;2024-03-17T03:53:42;4.13;;;3.43;;
5277;SDS011;2662;51.194;6.614;2024-03-17T03:56:09;3.27;;;2.87;;
5277;SDS011;2662;51.194;6.614;2024-03-17T03:58:37;5.93;;;3.17;;
5277;SDS011;2662;51.194;6.614;2024-03-17T04:01:05;4.90;;;3.60;;
5277;SDS011;2662;51.194;6.614;2024-03-17T04:03:38;5.07;;;3.53;;
5277;SDS011;2662;51.194;6.614;2024-03-17T04:06:05;5.23;;;2.97;;
5277;SDS011;2662;51.194;6.614;2024-03-17T04:08:34;3.67;;;2.87;;
5277;SDS011;2662;51.194;6.614;2024-03-17T04:11:01;5.00;;;2.97;;
5277;SDS011;2662;51.194;6.614;2024-03-17T04:13:28;4.53;;;3.43;;
5277;SDS011;2662;51.194;6.614;2024-03-17T04:15:55;4.10;;;3.23;;
5277;SDS011;2662;51.194;6.614;2024-03-17T04:18:24;5.00;;;3.27;;
5277;SDS011;2662;51.194;6.614;2024-03-17T04:20:53;6.10;;;3.40;;
5277;SDS011;2662;51.194;6.614;2024-03-17T04:23:20;4.10;;;3.17;;
5277;SDS011;2662;51.194;6.614;2024-03-17T04:25:47;4.17;;;3.33;;
5277;SDS011;2662;51.194;6.614;2024-03-17T04:28:15;5.73;;;3.10;;
5277;SDS011;2662;51.194;6.614;2024-03-17T04:30:42;5.63;;;3.40;;
5277;SDS011;2662;51.194;6.614;2024-03-17T04:33:10;2.63;;;2.43;;
5277;SDS011;2662;51.194;6.614;2024-03-17T04:35:37;6.03;;;3.27;;
5277;SDS011;2662;51.194;6.614;2024-03-17T04:38:06;4.40;;;3.43;;
5277;SDS011;2662;51.194;6.614;2024-03-17T04:40:34;5.60;;;3.27;;
5277;SDS011;2662;51.194;6.614;2024-03-17T04:43:01;5.37;;;3.40;;
5277;SDS011;2662;51.194;6.614;2024-03-17T04:45:28;3.83;;;3.03;;
5277;SDS011;2662;51.194;6.614;2024-03-17T04:47:56;7.00;;;3.47;;
5277;SDS011;2662;51.194;6.614;2024-03-17T04:50:23;3.70;;;2.47;;
5277;SDS011;2662;51.194;6.614;2024-03-17T04:52:51;4.60;;;2.90;;
5277;SDS011;2662;51.194;6.614;2024-03-17T04:55:19;5.43;;;3.63;;
5277;SDS011;2662;51.194;6.614;2024-03-17T04:57:46;6.23;;;3.67;;
5277;SDS011;2662;51.194;6.614;2024-03-17T05:00:13;5.17;;;3.37;;
5277;SDS011;2662;51.194;6.614;2024-03-17T05:02:44;5.83;;;3.47;;
5277;SDS011;2662;51.194;6.614;2024-03-17T05:05:11;7.53;;;3.30;;
5277;SDS011;2662;51.194;6.614;2024-03-17T05:07:38;4.93;;;3.53;;
5277;SDS011;2662;51.194;6.614;2024-03-17T05:10:05;7.63;;;3.80;;
5277;SDS011;2662;51.194;6.614;2024-03-17T05:12:34;5.37;;;2.83;;
5277;SDS011;2662;51.194;6.614;2024-03-17T05:15:01;5.53;;;3.57;;
5277;SDS011;2662;51.194;6.614;2024-03-17T05:17:29;3.50;;;2.77;;
5277;SDS011;2662;51.194;6.614;2024-03-17T05:19:56;6.20;;;3.33;;
5277;SDS011;2662;51.194;6.614;2024-03-17T05:22:24;4.80;;;3.30;;
5277;SDS011;2662;51.194;6.614;2024-03-17T05:24:51;4.70;;;3.00;;
5277;SDS011;2662;51.194;6.614;2024-03-17T05:27:18;4.40;;;3.10;;
5277;SDS011;2662;51.194;6.614;2024-03-17T05:29:47;3.23;;;2.67;;
5277;SDS011;2662;51.194;6.614;2024-03-17T05:32:16;3.37;;;2.97;;
5277;SDS011;2662;51.194;6.614;2024-03-17T05:34:43;5.73;;;3.20;;
5277;SDS011;2662;51.194;6.614;2024-03-17T05:37:10;5.27;;;3.40;;
5277;SDS011;2662;51.194;6.614;2024-03-17T05:39:38;7.43;;;3.47;;
5277;SDS011;2662;51.194;6.614;2024-03-17T05:42:05;5.03;;;2.30;;
5277;SDS011;2662;51.194;6.614;2024-03-17T05:44:33;3.37;;;3.07;;
5277;SDS011;2662;51.194;6.614;2024-03-17T05:47:16;5.53;;;2.60;;
5277;SDS011;2662;51.194;6.614;2024-03-17T05:49:44;3.60;;;1.90;;
5277;SDS011;2662;51.194;6.614;2024-03-17T05:52:11;2.93;;;2.60;;
5277;SDS011;2662;51.194;6.614;2024-03-17T05:54:39;3.90;;;2.77;;
5277;SDS011;2662;51.194;6.614;2024-03-17T05:57:06;2.60;;;2.40;;
5277;SDS011;2662;51.194;6.614;2024-03-17T05:59:34;2.87;;;2.53;;
5277;SDS011;2662;51.194;6.614;2024-03-17T06:02:04;3.17;;;2.73;;
5277;SDS011;2662;51.194;6.614;2024-03-17T06:04:33;5.70;;;2.37;;
5277;SDS011;2662;51.194;6.614;2024-03-17T06:07:00;8.20;;;2.40;;
5277;SDS011;2662;51.194;6.614;2024-03-17T06:09:32;2.80;;;2.60;;
5277;SDS011;2662;51.194;6.614;2024-03-17T06:11:59;3.63;;;2.70;;
5277;SDS011;2662;51.194;6.614;2024-03-17T06:14:26;3.50;;;3.20;;
5277;SDS011;2662;51.194;6.614;2024-03-17T06:16:53;2.50;;;2.30;;
5277;SDS011;2662;51.194;6.614;2024-03-17T06:19:20;3.90;;;2.97;;
5277;SDS011;2662;51.194;6.614;2024-03-17T06:21:48;3.93;;;2.90;;
5277;SDS011;2662;51.194;6.614;2024-03-17T06:24:16;5.00;;;2.83;;
5277;SDS011;2662;51.194;6.614;2024-03-17T06:26:43;2.90;;;2.70;;
5277;SDS011;2662;51.194;6.614;2024-03-17T06:29:12;2.93;;;2.40;;
5277;SDS011;2662;51.194;6.614;2024-03-17T06:31:39;7.60;;;2.77;;
5277;SDS011;2662;51.194;6.614;2024-03-17T06:34:06;2.67;;;2.17;;
5277;SDS011;2662;51.194;6.614;2024-03-17T06:36:33;4.47;;;3.00;;
5277;SDS011;2662;51.194;6.614;2024-03-17T06:39:03;7.60;;;2.77;;
5277;SDS011;2662;51.194;6.614;2024-03-17T06:41:30;4.40;;;3.17;;
5277;SDS011;2662;51.194;6.614;2024-03-17T06:43:57;3.33;;;3.00;;
5277;SDS011;2662;51.194;6.614;2024-03-17T06:46:24;3.93;;;3.17;;
5277;SDS011;2662;51.194;6.614;2024-03-17T06:48:52;7.20;;;3.00;;
5277;SDS011;2662;51.194;6.614;2024-03-17T06:51:23;3.87;;;2.90;;
5277;SDS011;2662;51.194;6.614;2024-03-17T06:53:50;11.23;;;3.80;;
5277;SDS011;2662;51.194;6.614;2024-03-17T06:56:18;4.07;;;3.17;;
5277;SDS011;2662;51.194;6.614;2024-03-17T06:58:45;2.53;;;2.33;;
5277;SDS011;2662;51.194;6.614;2024-03-17T07:01:12;4.30;;;3.10;;
5277;SDS011;2662;51.194;6.614;2024-03-17T07:03:39;7.47;;;3.43;;
5277;SDS011;2662;51.194;6.614;2024-03-17T07:06:07;5.00;;;3.00;;
5277;SDS011;2662;51.194;6.614;2024-03-17T07:08:34;5.77;;;3.03;;
5277;SDS011;2662;51.194;6.614;2024-03-17T07:11:02;4.03;;;3.23;;
5277;SDS011;2662;51.194;6.614;2024-03-17T07:13:33;4.00;;;2.90;;
5277;SDS011;2662;51.194;6.614;2024-03-17T07:16:03;4.43;;;2.90;;
5277;SDS011;2662;51.194;6.614;2024-03-17T07:18:32;6.87;;;2.70;;
5277;SDS011;2662;51.194;6.614;2024-03-17T07:21:02;4.30;;;3.10;;
5277;SDS011;2662;51.194;6.614;2024-03-17T07:23:30;4.40;;;2.50;;
5277;SDS011;2662;51.194;6.614;2024-03-17T07:25:58;3.43;;;2.40;;
5277;SDS011;2662;51.194;6.614;2024-03-17T07:28:27;4.47;;;2.77;;
5277;SDS011;2662;51.194;6.614;2024-03-17T07:30:56;4.00;;;3.07;;
5277;SDS011;2662;51.194;6.614;2024-03-17T07:33:25;3.53;;;2.33;;
5277;SDS011;2662;51.194;6.614;2024-03-17T07:35:53;3.70;;;2.60;;
5277;SDS011;2662;51.194;6.614;2024-03-17T07:38:22;2.67;;;2.47;;
5277;SDS011;2662;51.194;6.614;2024-03-17T07:40:57;3.57;;;2.47;;
5277;SDS011;2662;51.194;6.614;2024-03-17T07:43:25;11.13;;;3.20;;
5277;SDS011;2662;51.194;6.614;2024-03-17T07:46:03;4.40;;;2.80;;
5277;SDS011;2662;51.194;6.614;2024-03-17T07:48:32;3.97;;;2.70;;
5277;SDS011;2662;51.194;6.614;2024-03-17T07:51:01;5.70;;;2.50;;
5277;SDS011;2662;51.194;6.614;2024-03-17T07:53:29;2.70;;;2.50;;
5277;SDS011;2662;51.194;6.614;2024-03-17T07:55:56;3.13;;;2.30;;
5277;SDS011;2662;51.194;6.614;2024-03-17T07:58:25;2.97;;;2.37;;
5277;SDS011;2662;51.194;6.614;2024-03-17T08:00:52;3.03;;;2.77;;
5277;SDS011;2662;51.194;6.614;2024-03-17T08:03:20;2.80;;;2.50;;
5277;SDS011;2662;51.194;6.614;2024-03-17T08:05:48;2.50;;;2.30;;
5277;SDS011;2662;51.194;6.614;2024-03-17T08:08:16;6.90;;;2.57;;
5277;SDS011;2662;51.194;6.614;2024-03-17T08:10:43;3.27;;;2.57;;
5277;SDS011;2662;51.194;6.614;2024-03-17T08:13:10;3.87;;;2.03;;
5277;SDS011;2662;51.194;6.614;2024-03-17T08:15:41;4.13;;;2.43;;
5277;SDS011;2662;51.194;6.614;2024-03-17T08:18:08;2.63;;;2.33;;
5277;SDS011;2662;51.194;6.614;2024-03-17T08:20:37;3.87;;;2.40;;
5277;SDS011;2662;51.194;6.614;2024-03-17T08:23:04;2.87;;;2.43;;
5277;SDS011;2662;51.194;6.614;2024-03-17T08:25:32;2.40;;;2.17;;
5277;SDS011;2662;51.194;6.614;2024-03-17T08:28:01;2.70;;;2.40;;
5277;SDS011;2662;51.194;6.614;2024-03-17T08:30:29;3.17;;;1.97;;
5277;SDS011;2662;51.194;6.614;2024-03-17T08:32:56;2.70;;;2.00;;
5277;SDS011;2662;51.194;6.614;2024-03-17T08:35:23;3.00;;;2.63;;
5277;SDS011;2662;51.194;6.614;2024-03-17T08:37:53;2.60;;;1.90;;
5277;SDS011;2662;51.194;6.614;2024-03-17T08:40:21;3.60;;;2.40;;
5277;SDS011;2662;51.194;6.614;2024-03-17T08:42:48;2.93;;;2.47;;
5277;SDS011;2662;51.194;6.614;2024-03-17T08:45:17;8.73;;;2.73;;
5277;SDS011;2662;51.194;6.614;2024-03-17T08:47:44;3.10;;;2.57;;
5277;SDS011;2662;51.194;6.614;2024-03-17T08:50:12;2.20;;;2.00;;
5277;SDS011;2662;51.194;6.614;2024-03-17T08:52:40;3.63;;;2.33;;
5277;SDS011;2662;51.194;6.614;2024-03-17T08:55:10;5.20;;;3.07;;
5277;SDS011;2662;51.194;6.614;2024-03-17T08:57:39;2.80;;;2.50;;
5277;SDS011;2662;51.194;6.614;2024-03-17T09:00:07;3.83;;;2.50;;
5277;SDS011;2662;51.194;6.614;2024-03-17T09:02:35;3.50;;;2.30;;
5277;SDS011;2662;51.194;6.614;2024-03-17T09:05:02;4.90;;;2.40;;
5277;SDS011;2662;51.194;6.614;2024-03-17T09:07:30;3.00;;;2.70;;
5277;SDS011;2662;51.194;6.614;2024-03-17T09:09:57;3.23;;;2.07;;
5277;SDS011;2662;51.194;6.614;2024-03-17T09:12:25;2.50;;;1.80;;
5277;SDS011;2662;51.194;6.614;2024-03-17T09:14:54;7.00;;;2.87;;
5277;SDS011;2662;51.194;6.614;2024-03-17T09:17:21;3.27;;;1.90;;
5277;SDS011;2662;51.194;6.614;2024-03-17T09:19:48;4.10;;;2.20;;
5277;SDS011;2662;51.194;6.614;2024-03-17T09:22:15;2.03;;;1.80;;
5277;SDS011;2662;51.194;6.614;2024-03-17T09:24:42;3.60;;;2.63;;
5277;SDS011;2662;51.194;6.614;2024-03-17T09:27:10;6.63;;;2.60;;
5277;SDS011;2662;51.194;6.614;2024-03-17T09:29:38;4.67;;;2.40;;
5277;SDS011;2662;51.194;6.614;2024-03-17T09:32:18;2.97;;;2.10;;
5277;SDS011;2662;51.194;6.614;2024-03-17T09:34:46;2.37;;;2.17;;
5277;SDS011;2662;51.194;6.614;2024-03-17T09:37:14;4.03;;;2.10;;
5277;SDS011;2662;51.194;6.614;2024-03-17T09:39:42;2.27;;;2.00;;
5277;SDS011;2662;51.194;6.614;2024-03-17T09:42:13;3.30;;;2.23;;
5277;SDS011;2662;51.194;6.614;2024-03-17T09:44:46;3.20;;;2.17;;
5277;SDS011;2662;51.194;6.614;2024-03-17T09:47:15;2.93;;;2.63;;
5277;SDS011;2662;51.194;6.614;2024-03-17T09:49:46;3.60;;;2.27;;
5277;SDS011;2662;51.194;6.614;2024-03-17T09:52:20;4.23;;;2.17;;
5277;SDS011;2662;51.194;6.614;2024-03-17T09:54:50;4.23;;;2.10;;
5277;SDS011;2662;51.194;6.614;2024-03-17T09:57:22;3.30;;;1.90;;
5277;SDS011;2662;51.194;6.614;2024-03-17T09:59:52;4.60;;;2.23;;
5277;SDS011;2662;51.194;6.614;2024-03-17T10:02:20;3.37;;;2.30;;
5277;SDS011;2662;51.194;6.614;2024-03-17T10:04:47;4.43;;;2.00;;
5277;SDS011;2662;51.194;6.614;2024-03-17T10:07:15;2.70;;;2.30;;
5277;SDS011;2662;51.194;6.614;2024-03-17T10:09:42;3.37;;;2.53;;
5277;SDS011;2662;51.194;6.614;2024-03-17T10:12:26;3.47;;;2.20;;
5277;SDS011;2662;51.194;6.614;2024-03-17T10:15:01;3.87;;;2.17;;
5277;SDS011;2662;51.194;6.614;2024-03-17T10:17:30;2.17;;;1.97;;
5277;SDS011;2662;51.194;6.614;2024-03-17T10:20:11;2.87;;;2.30;;
5277;SDS011;2662;51.194;6.614;2024-03-17T10:25:27;3.70;;;2.07;;
5277;SDS011;2662;51.194;6.614;2024-03-17T10:27:56;2.17;;;1.90;;
5277;SDS011;2662;51.194;6.614;2024-03-17T10:30:25;7.60;;;1.90;;
5277;SDS011;2662;51.194;6.614;2024-03-17T10:32:55;2.10;;;1.90;;
5277;SDS011;2662;51.194;6.614;2024-03-17T10:35:27;3.07;;;2.10;;
5277;SDS011;2662;51.194;6.614;2024-03-17T10:37:56;2.37;;;2.17;;
5277;SDS011;2662;51.194;6.614;2024-03-17T10:40:24;2.30;;;2.10;;
5277;SDS011;2662;51.194;6.614;2024-03-17T10:42:54;3.93;;;2.60;;
5277;SDS011;2662;51.194;6.614;2024-03-17T10:45:22;3.13;;;2.17;;
5277;SDS011;2662;51.194;6.614;2024-03-17T10:47:51;1.83;;;1.73;;
5277;SDS011;2662;51.194;6.614;2024-03-17T10:50:22;2.80;;;2.50;;
5277;SDS011;2662;51.194;6.614;2024-03-17T10:52:50;3.70;;;2.00;;
5277;SDS011;2662;51.194;6.614;2024-03-17T10:55:21;2.20;;;1.90;;
5277;SDS011;2662;51.194;6.614;2024-03-17T10:57:50;2.50;;;2.17;;
5277;SDS011;2662;51.194;6.614;2024-03-17T11:00:19;5.20;;;2.60;;
5277;SDS011;2662;51.194;6.614;2024-03-17T11:02:49;2.20;;;2.00;;
5277;SDS011;2662;51.194;6.614;2024-03-17T11:05:18;5.77;;;2.20;;
5277;SDS011;2662;51.194;6.614;2024-03-17T11:07:51;9.27;;;2.30;;
5277;SDS011;2662;51.194;6.614;2024-03-17T11:10:21;4.07;;;2.50;;
5277;SDS011;2662;51.194;6.614;2024-03-17T11:12:49;1.90;;;1.80;;
5277;SDS011;2662;51.194;6.614;2024-03-17T11:15:36;3.40;;;2.37;;
5277;SDS011;2662;51.194;6.614;2024-03-17T11:21:18;4.13;;;1.97;;
5277;SDS011;2662;51.194;6.614;2024-03-17T11:23:57;10.40;;;2.50;;
5277;SDS011;2662;51.194;6.614;2024-03-17T11:26:31;5.23;;;2.53;;
5277;SDS011;2662;51.194;6.614;2024-03-17T11:29:01;3.37;;;2.77;;
5277;SDS011;2662;51.194;6.614;2024-03-17T11:31:37;3.40;;;3.10;;
5277;SDS011;2662;51.194;6.614;2024-03-17T11:34:08;4.53;;;2.27;;
5277;SDS011;2662;51.194;6.614;2024-03-17T11:36:53;7.57;;;2.60;;
5277;SDS011;2662;51.194;6.614;2024-03-17T11:39:21;2.70;;;2.47;;
5277;SDS011;2662;51.194;6.614;2024-03-17T11:42:21;2.80;;;2.40;;
5277;SDS011;2662;51.194;6.614;2024-03-17T11:44:56;3.73;;;2.40;;
5277;SDS011;2662;51.194;6.614;2024-03-17T11:47:35;2.60;;;2.13;;
5277;SDS011;2662;51.194;6.614;2024-03-17T11:50:10;4.50;;;2.50;;
5277;SDS011;2662;51.194;6.614;2024-03-17T11:52:37;4.47;;;2.10;;
5277;SDS011;2662;51.194;6.614;2024-03-17T11:55:14;3.27;;;2.30;;
5277;SDS011;2662;51.194;6.614;2024-03-17T11:57:41;2.60;;;2.27;;
5277;SDS011;2662;51.194;6.614;2024-03-17T12:00:18;2.50;;;2.30;;
5277;SDS011;2662;51.194;6.614;2024-03-17T12:02:47;4.40;;;2.23;;
5277;SDS011;2662;51.194;6.614;2024-03-17T12:05:16;3.17;;;2.30;;
5277;SDS011;2662;51.194;6.614;2024-03-17T12:07:42;5.40;;;2.50;;
5277;SDS011;2662;51.194;6.614;2024-03-17T12:10:10;2.60;;;2.27;;
5277;SDS011;2662;51.194;6.614;2024-03-17T12:12:38;6.83;;;2.70;;
5277;SDS011;2662;51.194;6.614;2024-03-17T12:15:13;2.37;;;2.17;;
5277;SDS011;2662;51.194;6.614;2024-03-17T12:17:42;3.27;;;2.73;;
5277;SDS011;2662;51.194;6.614;2024-03-17T12:20:17;2.80;;;2.03;;
5277;SDS011;2662;51.194;6.614;2024-03-17T12:22:45;2.83;;;1.73;;
5277;SDS011;2662;51.194;6.614;2024-03-17T12:25:16;2.40;;;2.20;;
5277;SDS011;2662;51.194;6.614;2024-03-17T12:27:43;3.37;;;1.93;;
5277;SDS011;2662;51.194;6.614;2024-03-17T12:30:12;4.83;;;2.10;;
5277;SDS011;2662;51.194;6.614;2024-03-17T12:32:38;4.87;;;2.50;;
5277;SDS011;2662;51.194;6.614;2024-03-17T12:35:11;3.10;;;2.20;;
5277;SDS011;2662;51.194;6.614;2024-03-17T12:37:42;1.93;;;1.77;;
5277;SDS011;2662;51.194;6.614;2024-03-17T12:40:20;2.33;;;2.13;;
5277;SDS011;2662;51.194;6.614;2024-03-17T12:42:47;2.80;;;2.33;;
5277;SDS011;2662;51.194;6.614;2024-03-17T12:45:19;5.57;;;2.30;;
5277;SDS011;2662;51.194;6.614;2024-03-17T12:47:46;4.00;;;2.70;;
5277;SDS011;2662;51.194;6.614;2024-03-17T12:50:14;2.27;;;2.07;;
5277;SDS011;2662;51.194;6.614;2024-03-17T12:52:50;3.77;;;2.63;;
5277;SDS011;2662;51.194;6.614;2024-03-17T12:55:18;4.83;;;2.10;;
5277;SDS011;2662;51.194;6.614;2024-03-17T12:58:10;2.90;;;2.20;;
5277;SDS011;2662;51.194;6.614;2024-03-17T13:00:58;3.70;;;2.20;;
5277;SDS011;2662;51.194;6.614;2024-03-17T13:03:26;4.83;;;2.07;;
5277;SDS011;2662;51.194;6.614;2024-03-17T13:05:56;4.03;;;2.30;;
5277;SDS011;2662;51.194;6.614;2024-03-17T13:08:25;5.13;;;2.27;;
5277;SDS011;2662;51.194;6.614;2024-03-17T13:10:52;4.53;;;1.80;;
5277;SDS011;2662;51.194;6.614;2024-03-17T13:13:19;7.27;;;2.47;;
5277;SDS011;2662;51.194;6.614;2024-03-17T13:15:46;2.30;;;1.90;;
5277;SDS011;2662;51.194;6.614;2024-03-17T13:18:15;2.63;;;2.17;;
5277;SDS011;2662;51.194;6.614;2024-03-17T13:20:44;4.67;;;2.10;;
5277;SDS011;2662;51.194;6.614;2024-03-17T13:23:12;2.63;;;1.90;;
5277;SDS011;2662;51.194;6.614;2024-03-17T13:25:40;3.60;;;2.00;;
5277;SDS011;2662;51.194;6.614;2024-03-17T13:28:08;2.20;;;1.70;;
5277;SDS011;2662;51.194;6.614;2024-03-17T13:30:36;2.40;;;1.70;;
5277;SDS011;2662;51.194;6.614;2024-03-17T13:33:05;2.53;;;2.00;;
5277;SDS011;2662;51.194;6.614;2024-03-17T13:35:35;2.80;;;2.10;;
5277;SDS011;2662;51.194;6.614;2024-03-17T13:38:04;7.10;;;2.77;;
5277;SDS011;2662;51.194;6.614;2024-03-17T13:40:31;5.67;;;1.80;;
5277;SDS011;2662;51.194;6.614;2024-03-17T13:43:00;1.83;;;1.73;;
5277;SDS011;2662;51.194;6.614;2024-03-17T13:45:28;3.03;;;2.00;;
5277;SDS011;2662;51.194;6.614;2024-03-17T13:48:02;2.37;;;1.90;;
5277;SDS011;2662;51.194;6.614;2024-03-17T13:50:30;1.93;;;1.77;;
5277;SDS011;2662;51.194;6.614;2024-03-17T13:52:58;3.83;;;1.90;;
5277;SDS011;2662;51.194;6.614;2024-03-17T13:55:28;3.90;;;2.00;;
5277;SDS011;2662;51.194;6.614;2024-03-17T13:57:56;4.10;;;1.70;;
5277;SDS011;2662;51.194;6.614;2024-03-17T14:00:26;3.13;;;1.57;;
5277;SDS011;2662;51.194;6.614;2024-03-17T14:02:54;1.70;;;1.60;;
5277;SDS011;2662;51.194;6.614;2024-03-17T14:05:22;4.10;;;3.13;;
5277;SDS011;2662;51.194;6.614;2024-03-17T14:07:51;2.70;;;2.23;;
5277;SDS011;2662;51.194;6.614;2024-03-17T14:10:19;6.83;;;1.90;;
5277;SDS011;2662;51.194;6.614;2024-03-17T14:12:47;2.27;;;1.70;;
5277;SDS011;2662;51.194;6.614;2024-03-17T14:15:15;2.43;;;1.50;;
5277;SDS011;2662;51.194;6.614;2024-03-17T14:17:45;1.80;;;1.70;;
5277;SDS011;2662;51.194;6.614;2024-03-17T14:20:14;3.70;;;1.70;;
5277;SDS011;2662;51.194;6.614;2024-03-17T14:22:43;1.97;;;1.80;;
5277;SDS011;2662;51.194;6.614;2024-03-17T14:25:14;3.73;;;1.70;;
5277;SDS011;2662;51.194;6.614;2024-03-17T14:27:42;1.97;;;1.70;;
5277;SDS011;2662;51.194;6.614;2024-03-17T14:30:10;2.03;;;1.60;;
5277;SDS011;2662;51.194;6.614;2024-03-17T14:32:40;1.77;;;1.67;;
5277;SDS011;2662;51.194;6.614;2024-03-17T14:35:09;3.53;;;1.97;;
5277;SDS011;2662;51.194;6.614;2024-03-17T14:37:39;3.37;;;1.80;;
5277;SDS011;2662;51.194;6.614;2024-03-17T14:40:08;2.20;;;2.00;;
5277;SDS011;2662;51.194;6.614;2024-03-17T14:42:41;2.20;;;1.80;;
5277;SDS011;2662;51.194;6.614;2024-03-17T14:45:09;1.80;;;1.70;;
5277;SDS011;2662;51.194;6.614;2024-03-17T14:47:37;1.90;;;1.80;;
5277;SDS011;2662;51.194;6.614;2024-03-17T14:50:04;2.70;;;1.97;;
5277;SDS011;2662;51.194;6.614;2024-03-17T14:52:33;3.80;;;1.70;;
5277;SDS011;2662;51.194;6.614;2024-03-17T14:55:00;1.73;;;1.63;;
5277;SDS011;2662;51.194;6.614;2024-03-17T14:57:27;4.97;;;2.00;;
5277;SDS011;2662;51.194;6.614;2024-03-17T14:59:54;1.93;;;1.80;;
5277;SDS011;2662;51.194;6.614;2024-03-17T15:02:21;2.60;;;1.80;;
5277;SDS011;2662;51.194;6.614;2024-03-17T15:04:50;2.70;;;1.80;;
5277;SDS011;2662;51.194;6.614;2024-03-17T15:07:18;2.40;;;1.80;;
5277;SDS011;2662;51.194;6.614;2024-03-17T15:09:46;2.60;;;2.40;;
5277;SDS011;2662;51.194;6.614;2024-03-17T15:12:15;3.27;;;1.80;;
5277;SDS011;2662;51.194;6.614;2024-03-17T15:14:42;2.77;;;2.20;;
5277;SDS011;2662;51.194;6.614;2024-03-17T15:17:09;4.40;;;2.10;;
5277;SDS011;2662;51.194;6.614;2024-03-17T15:19:36;1.97;;;1.73;;
5277;SDS011;2662;51.194;6.614;2024-03-17T15:22:07;1.70;;;1.60;;
5277;SDS011;2662;51.194;6.614;2024-03-17T15:24:34;2.63;;;2.13;;
5277;SDS011;2662;51.194;6.614;2024-03-17T15:27:02;6.07;;;2.07;;
5277;SDS011;2662;51.194;6.614;2024-03-17T15:29:30;1.63;;;1.50;;
5277;SDS011;2662;51.194;6.614;2024-03-17T15:31:57;3.83;;;2.17;;